Time;durP1;ratioP1;P1;durP2;ratioP2;P2;SDS_P1;SDS_P2;PMS_P1;PMS_P2;Temp;Humidity;BMP_temperature;BMP_pressure;BME280_temperature;BME280_humidity;BME280_pressure;Samples;Min_cycle;Max_cycle;Signal;HPM_P1;HPM_P2
2022/11/03 00:01:59;;;;;;;;;8.00;5.00;;;;;12.92;100.00;101144.94;5004673;28;45409;-77
2022/11/03 00:04:24;;;;;;;;;6.33;5.00;;;;;12.99;100.00;101146.72;5007941;28;45335;-77
2022/11/03 00:06:52;;;;;;;;;5.33;5.00;;;;;13.04;100.00;101158.69;5002928;28;46740;-77
2022/11/03 00:09:19;;;;;;;;;8.00;6.00;;;;;12.97;100.00;101147.91;5005677;28;45353;-77
2022/11/03 00:11:47;;;;;;;;;11.00;7.33;;;;;13.00;100.00;101139.56;5004743;28;45329;-77
2022/11/03 00:14:15;;;;;;;;;5.33;5.33;;;;;13.00;100.00;101148.38;5005146;28;45336;-77
2022/11/03 00:16:42;;;;;;;;;6.00;6.00;;;;;12.98;100.00;101131.72;5003601;28;45422;-77
2022/11/03 00:19:08;;;;;;;;;7.00;7.00;;;;;13.03;100.00;101133.03;5005956;28;45297;-77
2022/11/03 00:21:34;;;;;;;;;10.00;9.00;;;;;12.98;100.00;101122.88;5004805;28;45278;-78
2022/11/03 00:24:02;;;;;;;;;7.00;7.00;;;;;13.03;100.00;101125.84;4985399;28;46213;-78
2022/11/03 00:26:29;;;;;;;;;7.67;7.67;;;;;13.02;100.00;101126.84;5001724;28;48291;-77
2022/11/03 00:28:59;;;;;;;;;8.00;6.00;;;;;12.98;100.00;101126.41;5004930;28;45510;-78
2022/11/03 00:31:29;;;;;;;;;10.33;9.33;;;;;13.03;100.00;101125.00;5003597;28;45357;-77
2022/11/03 00:33:56;;;;;;;;;5.33;5.33;;;;;13.05;100.00;101131.00;5007008;28;45252;-76
2022/11/03 00:36:24;;;;;;;;;9.67;9.00;;;;;13.04;100.00;101121.34;5002323;28;48362;-78
2022/11/03 00:38:49;;;;;;;;;12.00;8.67;;;;;13.06;100.00;101116.66;5003809;28;45238;-77
2022/11/03 00:41:16;;;;;;;;;9.00;9.00;;;;;13.10;100.00;101120.59;5004639;28;45286;-77
2022/11/03 00:43:42;;;;;;;;;6.00;6.00;;;;;13.07;100.00;101110.28;4986815;28;46118;-77
2022/11/03 00:46:09;;;;;;;;;8.67;7.33;;;;;13.17;100.00;101112.72;5004438;28;45396;-77
2022/11/03 00:48:35;;;;;;;;;7.67;7.00;;;;;13.13;100.00;101099.75;5006903;28;45400;-77
2022/11/03 00:51:01;;;;;;;;;6.00;6.00;;;;;13.18;100.00;101099.19;5004062;28;45317;-77
2022/11/03 00:53:27;;;;;;;;;8.67;7.00;;;;;13.13;100.00;101082.88;5003833;28;45287;-77
2022/11/03 00:55:53;;;;;;;;;7.00;7.00;;;;;13.16;100.00;101081.69;4985552;28;48487;-79
2022/11/03 00:58:18;;;;;;;;;6.00;6.00;;;;;13.19;100.00;101090.16;4985829;28;45266;-77
2022/11/03 01:00:43;;;;;;;;;7.33;7.33;;;;;13.18;100.00;101072.50;5005611;28;45340;-77
2022/11/03 01:03:09;;;;;;;;;7.00;7.00;;;;;13.13;100.00;101062.38;5003659;28;45632;-77
2022/11/03 01:08:23;;;;;;;;;6.67;6.67;;;;;13.21;100.00;101065.97;5005872;28;45605;-77
2022/11/03 01:13:32;;;;;;;;;5.33;5.00;;;;;13.22;100.00;101064.94;5002726;28;45364;-77
2022/11/03 01:15:58;;;;;;;;;5.00;5.00;;;;;13.16;100.00;101047.00;5002594;28;45482;-77
2022/11/03 01:18:24;;;;;;;;;6.00;5.00;;;;;13.12;100.00;101042.06;5004490;28;45537;-77
2022/11/03 01:20:56;;;;;;;;;7.00;6.33;;;;;13.19;100.00;101050.13;5002266;28;45473;-77
2022/11/03 01:23:23;;;;;;;;;6.00;6.00;;;;;13.20;100.00;101050.97;5001374;28;45695;-77
2022/11/03 01:25:49;;;;;;;;;6.33;4.00;;;;;13.19;100.00;101047.47;5004794;28;46074;-77
2022/11/03 01:28:14;;;;;;;;;5.00;5.00;;;;;13.20;100.00;101050.97;4985392;28;45371;-77
2022/11/03 01:30:39;;;;;;;;;6.33;5.00;;;;;13.15;100.00;101048.84;5001435;28;45368;-78
2022/11/03 01:33:05;;;;;;;;;6.67;6.00;;;;;13.18;100.00;101040.47;5001086;28;45322;-77
2022/11/03 01:35:30;;;;;;;;;7.33;7.33;;;;;13.15;100.00;101035.50;5000433;28;58177;-77
2022/11/03 01:37:55;;;;;;;;;6.00;6.00;;;;;13.15;100.00;101030.16;5002482;28;46286;-77
2022/11/03 01:40:22;;;;;;;;;7.00;6.33;;;;;13.12;100.00;101020.69;4999642;28;45338;-78
2022/11/03 01:42:47;;;;;;;;;5.00;5.00;;;;;13.17;100.00;101027.31;5001851;28;45372;-77
2022/11/03 01:45:12;;;;;;;;;8.00;6.00;;;;;13.17;100.00;101017.44;5004782;28;45264;-77
2022/11/03 01:47:41;;;;;;;;;7.67;7.00;;;;;13.18;100.00;101013.78;5002285;28;45431;-77
2022/11/03 01:50:15;;;;;;;;;8.33;6.00;;;;;13.15;100.00;101014.16;5003173;28;45424;-77
2022/11/03 01:52:40;;;;;;;;;9.00;7.00;;;;;13.18;100.00;101013.78;5001703;28;45464;-77
2022/11/03 01:55:10;;;;;;;;;6.00;5.00;;;;;13.17;100.00;101001.44;4984434;28;47066;-76
2022/11/03 01:57:59;;;;;;;;;5.67;5.67;;;;;13.07;100.00;100977.72;5002861;28;45403;-77
2022/11/03 02:00:24;;;;;;;;;8.67;7.67;;;;;13.13;100.00;100984.16;5004300;28;45407;-77
2022/11/03 02:02:50;;;;;;;;;5.67;5.00;;;;;13.18;100.00;100996.94;5002613;28;45461;-77
2022/11/03 02:05:18;;;;;;;;;7.67;5.00;;;;;13.17;100.00;100993.44;5003456;28;45340;-77
2022/11/03 02:07:52;;;;;;;;;8.67;6.00;;;;;13.18;100.00;100992.44;5003207;28;45376;-77
2022/11/03 02:10:18;;;;;;;;;7.33;5.00;;;;;13.05;100.00;100969.06;4984122;28;45338;-77
2022/11/03 02:12:43;;;;;;;;;4.33;4.33;;;;;13.14;100.00;100977.78;4984021;28;47090;-77
2022/11/03 02:15:12;;;;;;;;;10.33;8.00;;;;;13.16;100.00;100967.78;5000345;28;48296;-76
2022/11/03 02:17:40;;;;;;;;;6.00;5.00;;;;;13.15;100.00;100955.44;5001859;28;45282;-77
2022/11/03 02:20:16;;;;;;;;;5.67;5.00;;;;;13.08;100.00;100950.00;5001056;28;45293;-77
2022/11/03 02:22:58;;;;;;;;;5.67;5.67;;;;;13.10;100.00;100953.34;5001713;28;45375;-77
2022/11/03 02:25:43;;;;;;;;;6.00;5.33;;;;;13.08;100.00;100943.88;5002671;28;46312;-77
2022/11/03 02:28:09;;;;;;;;;7.33;6.33;;;;;13.00;100.00;100932.25;4985680;28;45938;-76
2022/11/03 02:30:52;;;;;;;;;4.00;4.00;;;;;13.06;100.00;100945.88;5002401;28;45393;-77
2022/11/03 02:33:36;;;;;;;;;7.33;6.00;;;;;13.04;100.00;100931.88;4973865;28;45368;-76
2022/11/03 02:36:21;;;;;;;;;7.00;6.00;;;;;13.06;100.00;100929.88;4985690;28;48380;-78
2022/11/03 02:39:01;;;;;;;;;10.00;8.00;;;;;12.96;100.00;100920.31;5003470;28;45384;-77
2022/11/03 02:41:28;;;;;;;;;5.67;5.33;;;;;13.01;100.00;100903.75;5005766;28;45466;-77
2022/11/03 02:43:55;;;;;;;;;6.00;6.00;;;;;13.03;100.00;100909.75;5001983;28;46325;-77
2022/11/03 02:46:25;;;;;;;;;8.00;7.00;;;;;13.02;100.00;100905.41;5002915;28;45997;-77
2022/11/03 02:48:51;;;;;;;;;6.00;5.33;;;;;13.05;100.00;100897.03;5003058;28;45275;-77
2022/11/03 02:51:17;;;;;;;;;5.67;5.67;;;;;13.07;100.00;100889.66;5002904;28;45396;-77
2022/11/03 02:53:54;;;;;;;;;7.33;7.33;;;;;13.07;100.00;100894.16;5002993;28;45342;-77
2022/11/03 02:56:23;;;;;;;;;7.00;7.00;;;;;13.03;100.00;100890.22;5002652;28;45337;-77
2022/11/03 02:59:08;;;;;;;;;8.00;6.00;;;;;13.05;100.00;100886.34;5002439;28;45378;-77
2022/11/03 03:01:55;;;;;;;;;7.00;6.00;;;;;13.06;100.00;100874.69;5001646;28;45335;-77
2022/11/03 03:04:34;;;;;;;;;6.33;6.33;;;;;13.11;100.00;100880.25;5001509;28;45309;-77
2022/11/03 03:07:04;;;;;;;;;4.33;4.33;;;;;13.11;100.00;100868.78;5006605;28;45320;-76
2022/11/03 03:09:59;;;;;;;;;7.00;7.00;;;;;13.04;100.00;100851.84;5006326;28;45233;-77
2022/11/03 03:12:26;;;;;;;;;6.33;5.00;;;;;13.07;100.00;100852.31;5003123;28;45262;-76
2022/11/03 03:14:55;;;;;;;;;3.33;3.00;;;;;13.09;100.00;100844.13;5003494;28;45559;-77
2022/11/03 03:17:48;;;;;;;;;7.33;5.33;;;;;13.16;100.00;100849.50;5003763;28;46167;-77
2022/11/03 03:20:23;;;;;;;;;8.00;6.00;;;;;13.16;100.00;100845.00;4977642;28;45518;-77
2022/11/03 03:22:52;;;;;;;;;3.33;3.33;;;;;13.19;100.00;100849.97;5002944;28;45454;-77
2022/11/03 03:25:25;;;;;;;;;5.67;5.67;;;;;13.13;100.00;100832.88;5001103;28;47128;-77
2022/11/03 03:28:16;;;;;;;;;4.67;4.33;;;;;13.14;100.00;100820.34;5004268;28;45418;-78
2022/11/03 03:30:43;;;;;;;;;8.00;7.00;;;;;13.21;100.00;100821.28;4993013;28;45150;-77
2022/11/03 03:33:11;;;;;;;;;6.00;5.00;;;;;13.15;100.00;100792.66;5003683;28;45277;-77
2022/11/03 03:35:40;;;;;;;;;7.67;6.33;;;;;13.18;100.00;100789.63;5004096;28;45377;-76
2022/11/03 03:38:12;;;;;;;;;6.67;6.33;;;;;13.21;100.00;100796.41;5000439;28;48607;-77
2022/11/03 03:40:43;;;;;;;;;6.67;4.00;;;;;13.25;100.00;100793.19;5000626;28;45360;-78
2022/11/03 03:43:11;;;;;;;;;4.67;4.67;;;;;13.22;100.00;100782.88;4984915;28;45341;-78
2022/11/03 03:45:37;;;;;;;;;6.67;6.00;;;;;13.25;100.00;100785.19;5001665;28;45332;-77
2022/11/03 03:48:05;;;;;;;;;4.33;2.67;;;;;13.30;100.00;100792.59;5003410;28;45337;-77
2022/11/03 03:50:35;;;;;;;;;6.00;5.00;;;;;13.32;100.00;100773.75;5002766;28;45296;-78
2022/11/03 03:53:02;;;;;;;;;5.33;4.67;;;;;13.29;100.00;100755.44;5004398;28;45467;-77
2022/11/03 03:55:50;;;;;;;;;5.67;5.67;;;;;13.33;100.00;100746.84;5001745;28;46398;-78
2022/11/03 03:58:16;;;;;;;;;6.33;6.33;;;;;13.35;100.00;100736.78;4983368;28;47138;-78
2022/11/03 04:00:41;;;;;;;;;4.67;4.00;;;;;13.37;100.00;100744.59;4995379;28;45313;-76
2022/11/03 04:03:19;;;;;;;;;5.00;4.00;;;;;13.35;100.00;100735.97;5001319;28;45357;-77
2022/11/03 04:05:45;;;;;;;;;6.00;5.00;;;;;13.31;100.00;100729.34;5002515;28;45495;-77
2022/11/03 04:08:12;;;;;;;;;5.00;5.00;;;;;13.38;100.00;100733.75;5002531;28;45257;-77
2022/11/03 04:10:38;;;;;;;;;5.00;5.00;;;;;13.36;100.00;100743.81;4982214;28;46114;-77
2022/11/03 04:23:47;;;;;;;;;4.33;4.33;;;;;13.41;100.00;100743.19;5002554;28;45380;-77
2022/11/03 04:26:15;;;;;;;;;4.00;4.00;;;;;13.41;100.00;100745.88;5001203;28;45491;-77
2022/11/03 04:28:42;;;;;;;;;4.67;4.67;;;;;13.42;100.00;100746.69;5000583;28;45395;-77
2022/11/03 04:31:13;;;;;;;;;6.33;6.33;;;;;13.44;100.00;100747.34;5001305;28;45246;-77
2022/11/03 04:33:40;;;;;;;;;7.00;6.67;;;;;13.43;100.00;100743.84;5000459;28;45488;-77
2022/11/03 04:36:24;;;;;;;;;5.00;5.00;;;;;13.43;100.00;100749.19;5001928;28;45481;-78
2022/11/03 04:38:51;;;;;;;;;5.00;5.00;;;;;13.38;100.00;100747.09;4981350;28;47241;-77
2022/11/03 04:41:21;;;;;;;;;6.67;5.33;;;;;13.38;100.00;100740.94;5001834;28;45281;-77
2022/11/03 04:43:48;;;;;;;;;4.00;4.00;;;;;13.38;100.00;100719.59;5000968;28;45689;-78
2022/11/03 04:46:23;;;;;;;;;7.33;6.00;;;;;13.31;100.00;100703.50;5000406;28;47142;-77
2022/11/03 04:48:49;;;;;;;;;4.00;4.00;;;;;13.31;100.00;100705.34;5001577;28;45296;-77
2022/11/03 04:51:23;;;;;;;;;6.33;5.00;;;;;13.33;100.00;100698.81;5002468;28;45361;-77
2022/11/03 04:54:12;;;;;;;;;6.00;6.00;;;;;13.32;100.00;100691.81;5001715;28;45341;-77
2022/11/03 04:56:39;;;;;;;;;6.00;5.00;;;;;13.35;100.00;100698.63;5001340;28;45441;-77
2022/11/03 04:59:10;;;;;;;;;5.00;4.00;;;;;13.33;100.00;100679.28;5000579;28;45333;-78
2022/11/03 05:01:36;;;;;;;;;7.00;6.00;;;;;13.31;100.00;100671.47;5001221;28;45480;-78
2022/11/03 05:04:01;;;;;;;;;4.00;4.00;;;;;13.37;100.00;100677.88;4985887;28;45358;-77
2022/11/03 05:06:28;;;;;;;;;4.33;4.33;;;;;13.35;100.00;100675.41;4983670;28;46528;-77
2022/11/03 05:09:16;;;;;;;;;4.00;4.00;;;;;13.34;100.00;100659.56;5002639;28;47446;-77
2022/11/03 05:11:46;;;;;;;;;3.00;3.00;;;;;13.32;100.00;100661.63;5002019;28;46002;-77
2022/11/03 05:14:28;;;;;;;;;6.33;6.00;;;;;13.36;100.00;100652.22;5002956;28;45230;-77
2022/11/03 05:16:55;;;;;;;;;4.00;4.00;;;;;13.34;100.00;100641.72;4986925;28;45411;-77
2022/11/03 05:19:20;;;;;;;;;4.67;4.00;;;;;13.34;100.00;100635.56;5001304;28;47126;-77
2022/11/03 05:21:48;;;;;;;;;5.00;5.00;;;;;13.34;100.00;100640.88;4985251;28;45912;-77
2022/11/03 05:24:15;;;;;;;;;5.00;4.00;;;;;13.32;100.00;100616.25;5008213;28;45356;-77
2022/11/03 05:26:41;;;;;;;;;4.00;4.00;;;;;13.32;100.00;100616.25;5000874;28;45254;-77
2022/11/03 05:29:19;;;;;;;;;7.00;4.00;;;;;13.31;100.00;100611.91;4999325;28;47216;-78
2022/11/03 05:31:50;;;;;;;;;4.00;4.00;;;;;13.27;100.00;100611.50;4983730;28;46118;-77
2022/11/03 05:34:25;;;;;;;;;4.33;4.33;;;;;13.32;100.00;100629.59;5002108;28;45357;-77
2022/11/03 05:36:50;;;;;;;;;5.00;4.33;;;;;13.30;100.00;100613.78;4983827;28;46183;-77
2022/11/03 05:39:25;;;;;;;;;5.33;3.33;;;;;13.30;100.00;100604.94;5000100;28;45237;-77
2022/11/03 05:41:50;;;;;;;;;4.33;4.33;;;;;13.22;100.00;100582.72;5004668;28;45356;-78
2022/11/03 05:44:37;;;;;;;;;7.33;4.67;;;;;13.20;100.00;100581.28;5002544;28;45428;-78
2022/11/03 05:47:13;;;;;;;;;4.00;4.00;;;;;13.24;100.00;100588.72;4985223;28;45453;-78
2022/11/03 05:49:39;;;;;;;;;5.00;3.00;;;;;13.21;100.00;100585.59;4987397;28;45320;-76
2022/11/03 05:52:11;;;;;;;;;5.67;4.33;;;;;13.25;100.00;100598.34;4986124;28;45543;-77
2022/11/03 05:54:37;;;;;;;;;3.00;3.00;;;;;13.11;100.00;100554.75;4983423;28;45518;-78
2022/11/03 05:57:09;;;;;;;;;5.33;5.00;;;;;13.25;100.00;100542.31;4985709;28;45328;-77
2022/11/03 05:59:35;;;;;;;;;4.00;4.00;;;;;13.22;100.00;100540.03;4988415;28;45311;-77
2022/11/03 06:02:01;;;;;;;;;5.33;4.33;;;;;13.20;100.00;100531.38;4986258;28;45290;-79
2022/11/03 06:04:36;;;;;;;;;4.33;3.00;;;;;13.22;100.00;100532.03;4985725;28;45448;-77
2022/11/03 06:07:24;;;;;;;;;7.00;5.00;;;;;13.21;100.00;100541.06;4990682;28;45356;-77
2022/11/03 06:09:51;;;;;;;;;4.00;3.00;;;;;13.16;100.00;100530.13;4992806;28;45245;-77
2022/11/03 06:12:19;;;;;;;;;6.67;5.33;;;;;13.22;100.00;100539.19;4990431;28;45443;-77
2022/11/03 06:14:45;;;;;;;;;5.33;5.33;;;;;13.20;100.00;100531.38;4993962;28;45415;-77
2022/11/03 06:17:25;;;;;;;;;6.33;5.00;;;;;13.16;100.00;100513.28;4993473;28;45368;-76
2022/11/03 06:19:53;;;;;;;;;6.67;5.00;;;;;13.21;100.00;100526.88;5006646;28;47385;-78
2022/11/03 06:22:33;;;;;;;;;5.00;4.67;;;;;13.19;100.00;100526.25;4992608;28;45214;-77
2022/11/03 06:25:21;;;;;;;;;4.00;3.33;;;;;13.13;100.00;100512.69;4993082;28;45363;-77
2022/11/03 06:27:46;;;;;;;;;4.67;4.00;;;;;13.16;100.00;100514.13;4991069;28;45234;-76
2022/11/03 06:30:27;;;;;;;;;7.00;6.00;;;;;13.20;100.00;100509.22;4993839;28;45179;-77
2022/11/03 06:32:56;;;;;;;;;5.67;5.67;;;;;13.19;100.00;100497.72;5007481;28;45340;-78
2022/11/03 06:35:22;;;;;;;;;5.00;3.00;;;;;13.19;100.00;100508.41;4988916;28;45281;-77
2022/11/03 06:37:47;;;;;;;;;4.33;4.33;;;;;13.19;100.00;100500.41;4988556;28;45317;-77
2022/11/03 06:40:12;;;;;;;;;4.33;2.33;;;;;13.19;100.00;100497.72;4986294;28;45311;-78
2022/11/03 06:42:38;;;;;;;;;5.33;4.00;;;;;13.07;100.00;100457.44;4998437;28;45558;-77
2022/11/03 06:45:22;;;;;;;;;4.33;4.33;;;;;13.13;100.00;100471.84;5006287;28;45423;-78
2022/11/03 06:47:49;;;;;;;;;4.00;4.00;;;;;13.19;100.00;100479.03;4992288;28;46076;-77
2022/11/03 06:50:25;;;;;;;;;7.33;4.67;;;;;13.20;100.00;100469.22;5012127;28;45277;-78
2022/11/03 06:52:52;;;;;;;;;4.33;4.00;;;;;13.19;100.00;100467.53;4988278;28;46018;-78
2022/11/03 06:55:21;;;;;;;;;4.00;4.00;;;;;13.21;100.00;100469.00;5006029;28;45639;-78
2022/11/03 06:57:49;;;;;;;;;7.00;5.00;;;;;13.18;100.00;100469.41;5004267;28;45224;-76
2022/11/03 07:00:27;;;;;;;;;4.67;4.00;;;;;13.13;100.00;100458.50;5002711;28;45236;-77
2022/11/03 07:02:56;;;;;;;;;3.00;3.00;;;;;13.21;100.00;100463.69;5003818;28;45313;-76
2022/11/03 07:05:27;;;;;;;;;3.33;3.33;;;;;13.21;100.00;100458.34;5003291;28;45417;-78
2022/11/03 07:07:57;;;;;;;;;4.33;4.00;;;;;13.08;100.00;100434.25;5003416;28;45389;-76
2022/11/03 07:10:27;;;;;;;;;4.33;4.00;;;;;13.20;100.00;100439.84;5003492;28;45433;-76
2022/11/03 07:12:54;;;;;;;;;4.00;4.00;;;;;13.19;100.00;100427.50;5013333;28;45408;-77
2022/11/03 07:15:32;;;;;;;;;3.33;3.00;;;;;13.18;100.00;100410.69;4969708;28;45532;-77
2022/11/03 07:17:59;;;;;;;;;4.00;4.00;;;;;13.24;100.00;100406.41;4998478;28;45298;-77
2022/11/03 07:20:26;;;;;;;;;5.00;4.33;;;;;13.21;100.00;100385.47;5008505;28;46748;-77
2022/11/03 07:22:53;;;;;;;;;4.00;4.00;;;;;13.24;100.00;100396.56;5011549;28;45341;-76
2022/11/03 07:25:20;;;;;;;;;3.00;3.00;;;;;13.25;100.00;100382.19;5008777;28;45499;-76
2022/11/03 07:27:52;;;;;;;;;3.33;3.33;;;;;13.26;100.00;100388.34;5004262;28;45469;-78
2022/11/03 07:30:22;;;;;;;;;3.33;3.33;;;;;13.26;100.00;100404.38;4993273;28;45509;-82
2022/11/03 07:32:52;;;;;;;;;5.00;4.00;;;;;13.27;100.00;100400.66;5001576;28;45238;-77
2022/11/03 07:35:27;;;;;;;;;5.33;4.67;;;;;13.19;100.00;100374.16;5002086;28;45305;-78
2022/11/03 07:37:53;;;;;;;;;5.67;5.00;;;;;13.26;100.00;100375.81;4983722;28;47324;-79
2022/11/03 07:40:23;;;;;;;;;3.00;3.00;;;;;13.28;100.00;100372.94;4999223;28;46395;-78
2022/11/03 07:42:50;;;;;;;;;5.00;4.00;;;;;13.31;100.00;100361.88;4986127;28;45303;-78
2022/11/03 07:45:38;;;;;;;;;3.33;3.33;;;;;13.33;100.00;100373.19;5003096;28;45279;-78
2022/11/03 07:48:26;;;;;;;;;4.33;4.00;;;;;13.35;100.00;100387.13;5003989;28;45313;-79
2022/11/03 07:50:54;;;;;;;;;5.67;5.00;;;;;13.37;100.00;100376.25;4995345;28;47653;-79
2022/11/03 07:53:36;;;;;;;;;4.00;3.00;;;;;13.39;100.00;100350.19;4978942;28;45211;-78
2022/11/03 07:56:14;;;;;;;;;2.00;2.00;;;;;13.35;100.00;100322.28;4998457;28;45322;-78
2022/11/03 07:58:41;;;;;;;;;5.00;5.00;;;;;13.42;100.00;100338.28;4985547;28;45346;-79
2022/11/03 08:01:26;;;;;;;;;5.67;3.67;;;;;13.46;100.00;100336.84;5004806;28;45712;-79
2022/11/03 08:03:53;;;;;;;;;3.00;3.00;;;;;13.37;100.00;100322.88;5005466;28;45281;-79
2022/11/03 08:06:19;;;;;;;;;4.00;3.00;;;;;13.50;100.00;100343.47;4998564;28;45430;-78
2022/11/03 08:08:44;;;;;;;;;3.67;3.67;;;;;13.48;100.00;100322.28;5007775;28;55691;-81
2022/11/03 08:11:09;;;;;;;;;3.00;3.00;;;;;13.53;100.00;100326.22;5008417;28;45396;-82
2022/11/03 08:13:35;;;;;;;;;2.67;2.67;;;;;13.50;100.00;100317.59;5012125;28;45761;-81
2022/11/03 08:16:00;;;;;;;;;4.00;2.00;;;;;13.59;100.00;100326.22;5007971;28;45374;-79
2022/11/03 08:18:25;;;;;;;;;5.00;4.67;;;;;13.63;100.00;100321.28;4991484;28;45336;-81
2022/11/03 08:20:51;;;;;;;;;5.00;4.33;;;;;13.62;100.00;100315.13;4992832;28;47581;-81
2022/11/03 08:23:16;;;;;;;;;6.33;4.00;;;;;13.70;100.00;100313.28;5008318;28;45307;-79
2022/11/03 08:25:42;;;;;;;;;3.00;2.00;;;;;13.69;100.00;100301.78;5001179;28;45371;-78
2022/11/03 08:28:08;;;;;;;;;4.00;4.00;;;;;13.78;100.00;100301.56;4999591;28;46658;-84
2022/11/03 08:30:33;;;;;;;;;3.00;3.00;;;;;13.72;100.00;100282.69;5001224;28;45386;-81
2022/11/03 08:32:59;;;;;;;;;4.67;4.33;;;;;13.88;100.00;100305.47;5012353;28;45459;-82
2022/11/03 08:35:25;;;;;;;;;5.00;4.00;;;;;13.87;100.00;100284.31;5008437;28;45230;-82
2022/11/03 08:37:50;;;;;;;;;3.67;2.00;;;;;13.88;100.00;100256.56;5005960;28;45201;-82
2022/11/03 08:40:16;;;;;;;;;5.00;4.67;;;;;14.00;99.53;100278.13;5003844;28;46289;-82
2022/11/03 08:42:41;;;;;;;;;5.00;4.00;;;;;14.01;99.28;100269.09;5007855;28;45340;-79
2022/11/03 08:45:07;;;;;;;;;4.00;4.00;;;;;14.03;99.73;100272.34;5004352;28;45469;-83
2022/11/03 08:47:32;;;;;;;;;3.00;2.00;;;;;14.11;99.68;100271.31;5020234;28;45842;-81
2022/11/03 08:49:57;;;;;;;;;4.67;2.67;;;;;14.19;99.42;100273.75;5002301;28;46206;-81
2022/11/03 08:52:23;;;;;;;;;3.00;3.00;;;;;14.30;98.82;100291.00;4999699;28;45369;-82
2022/11/03 08:54:48;;;;;;;;;5.33;3.67;;;;;14.25;98.76;100262.22;4993905;28;45448;-83
2022/11/03 08:57:14;;;;;;;;;6.00;4.33;;;;;14.37;98.60;100274.94;4986273;28;45855;-79
2022/11/03 08:59:39;;;;;;;;;5.00;5.00;;;;;14.43;99.10;100263.41;4995208;28;46013;-80
2022/11/03 09:02:05;;;;;;;;;4.00;2.33;;;;;14.44;98.06;100251.69;4979883;28;52014;-83
2022/11/03 09:04:30;;;;;;;;;4.00;3.67;;;;;14.41;97.90;100240.56;4993974;28;45283;-82
2022/11/03 09:06:55;;;;;;;;;4.00;4.00;;;;;14.46;97.48;100233.56;4977483;28;45975;-79
2022/11/03 09:09:20;;;;;;;;;4.67;4.00;;;;;14.52;97.21;100240.72;5000990;28;52275;-82
2022/11/03 09:11:46;;;;;;;;;5.00;3.67;;;;;14.51;97.56;100227.56;5002316;28;45325;-79
2022/11/03 09:14:12;;;;;;;;;4.00;4.00;;;;;14.60;97.53;100233.50;4977349;28;45461;-81
2022/11/03 09:16:38;;;;;;;;;4.00;4.00;;;;;14.62;97.41;100223.41;4988693;28;45339;-80
2022/11/03 09:19:03;;;;;;;;;3.67;3.67;;;;;14.67;96.83;100214.75;4976741;28;49242;-81
2022/11/03 09:21:28;;;;;;;;;5.00;3.00;;;;;14.71;96.57;100207.94;5000032;28;45238;-80
2022/11/03 09:23:54;;;;;;;;;4.00;4.00;;;;;14.73;97.01;100195.19;5006407;28;45351;-79
2022/11/03 09:26:19;;;;;;;;;4.00;4.00;;;;;14.79;96.17;100189.00;4979269;28;46342;-79
2022/11/03 09:28:44;;;;;;;;;3.33;3.33;;;;;14.85;96.02;100188.13;5002213;28;46162;-80
2022/11/03 09:31:10;;;;;;;;;3.33;3.33;;;;;14.87;95.31;100175.34;4998470;28;45367;-78
2022/11/03 09:33:35;;;;;;;;;4.67;3.33;;;;;14.92;95.77;100166.69;5004515;28;45672;-78
2022/11/03 09:36:01;;;;;;;;;4.00;4.00;;;;;14.99;95.76;100163.94;5008454;28;45613;-79
2022/11/03 09:38:26;;;;;;;;;3.00;3.00;;;;;15.05;95.55;100159.59;4993289;28;47136;-79
2022/11/03 09:40:52;;;;;;;;;4.00;4.00;;;;;15.09;95.55;100148.22;4998175;28;45285;-78
2022/11/03 09:43:18;;;;;;;;;4.67;4.00;;;;;15.15;95.32;100155.38;5014887;28;45564;-78
2022/11/03 09:45:43;;;;;;;;;5.67;5.67;;;;;15.13;95.45;100136.03;5014481;28;45507;-78
2022/11/03 09:48:11;;;;;;;;;11.00;8.67;;;;;15.24;94.50;100152.44;5015236;28;45557;-79
2022/11/03 09:50:36;;;;;;;;;7.00;7.00;;;;;15.29;94.67;100143.75;4990749;28;45266;-79
2022/11/03 09:53:02;;;;;;;;;8.00;7.00;;;;;15.32;94.49;100145.97;5003897;28;45223;-78
2022/11/03 09:55:27;;;;;;;;;5.33;5.33;;;;;15.30;94.89;100131.97;5001744;28;45230;-78
2022/11/03 09:57:59;;;;;;;;;8.00;8.00;;;;;15.30;94.32;100106.03;5007697;28;46089;-78
2022/11/03 10:00:26;;;;;;;;;6.00;6.00;;;;;15.33;93.85;100107.44;5010778;28;45336;-79
2022/11/03 10:02:52;;;;;;;;;6.00;5.00;;;;;15.30;93.67;100091.84;5015605;28;45344;-79
2022/11/03 10:05:26;;;;;;;;;5.33;5.00;;;;;15.38;93.09;100108.41;4998821;28;45272;-79
2022/11/03 10:07:57;;;;;;;;;6.00;6.00;;;;;15.34;92.95;100103.72;5003024;28;46223;-79
2022/11/03 10:10:23;;;;;;;;;4.33;4.33;;;;;15.47;92.56;100110.81;5002374;28;45375;-79
2022/11/03 10:12:51;;;;;;;;;3.67;3.67;;;;;15.48;92.61;100101.72;5004038;28;45384;-79
2022/11/03 10:15:19;;;;;;;;;12.67;12.67;;;;;15.49;92.34;100098.84;4989256;28;46087;-82
2022/11/03 10:17:45;;;;;;;;;6.00;6.00;;;;;15.51;92.29;100096.75;5006759;28;45357;-82
2022/11/03 10:20:13;;;;;;;;;7.33;7.00;;;;;15.44;92.22;100082.59;5009293;28;45159;-83
2022/11/03 10:22:39;;;;;;;;;5.00;5.00;;;;;15.47;91.54;100090.19;5009502;28;45471;-81
2022/11/03 10:25:28;;;;;;;;;7.00;7.00;;;;;15.54;90.79;100098.16;5003562;28;45974;-81
2022/11/03 10:28:20;;;;;;;;;7.33;6.00;;;;;15.57;91.10;100094.22;5004766;28;45252;-82
2022/11/03 10:30:51;;;;;;;;;5.00;5.00;;;;;15.57;90.71;100072.78;5001517;28;45447;-81
2022/11/03 10:33:28;;;;;;;;;4.33;4.33;;;;;15.65;90.24;100083.19;5002273;28;45386;-82
2022/11/03 10:36:04;;;;;;;;;4.33;4.33;;;;;15.68;90.52;100064.00;4995871;28;45431;-84
2022/11/03 10:38:30;;;;;;;;;6.00;6.00;;;;;15.75;90.61;100069.28;4992387;28;45427;-84
2022/11/03 10:41:19;;;;;;;;;5.33;5.33;;;;;15.72;89.04;100042.94;5003293;28;45359;-84
2022/11/03 10:43:59;;;;;;;;;6.33;5.33;;;;;15.87;89.81;100059.44;4991690;28;45384;-81
2022/11/03 10:46:24;;;;;;;;;7.00;6.00;;;;;15.89;89.74;100077.97;4996428;28;45305;-84
2022/11/03 10:49:05;;;;;;;;;4.67;4.67;;;;;15.89;88.88;100061.88;4975546;28;47083;-83
2022/11/03 10:51:33;;;;;;;;;6.00;4.67;;;;;15.87;89.19;100061.31;4988428;28;45236;-82
2022/11/03 10:54:01;;;;;;;;;3.00;3.00;;;;;15.93;87.93;100049.69;5000326;28;45352;-79
2022/11/03 10:56:27;;;;;;;;;4.33;4.33;;;;;15.94;88.16;100045.97;4998262;28;46308;-85
2022/11/03 10:58:53;;;;;;;;;2.67;2.67;;;;;15.94;86.70;100037.09;4981470;28;47498;-85
2022/11/03 11:01:18;;;;;;;;;2.33;2.33;;;;;15.94;87.61;100027.19;4987787;28;45478;-84
2022/11/03 11:03:44;;;;;;;;;3.67;3.67;;;;;15.98;87.55;100027.59;4998769;28;45217;-84
2022/11/03 11:06:25;;;;;;;;;5.00;3.67;;;;;16.07;87.53;100025.41;4977701;28;47047;-81
2022/11/03 11:08:53;;;;;;;;;4.00;3.00;;;;;16.14;87.67;100026.13;4985935;28;45658;-85
2022/11/03 11:11:21;;;;;;;;;2.67;2.67;;;;;16.18;85.62;100018.44;4999283;28;45344;-84
2022/11/03 11:14:36;;;;;;;;;2.00;2.00;;;;;16.26;85.70;100026.16;4998840;28;45248;-83
2022/11/03 11:17:03;;;;;;;;;4.67;4.67;;;;;16.25;85.34;100017.28;4980434;28;45405;-82
2022/11/03 11:19:29;;;;;;;;;3.00;2.67;;;;;16.36;84.41;100012.19;5001253;28;45379;-81
2022/11/03 11:21:54;;;;;;;;;5.33;5.33;;;;;16.40;85.01;100021.38;4981074;28;45321;-81
2022/11/03 11:24:42;;;;;;;;;4.33;4.33;;;;;16.41;83.91;100015.78;4981211;28;45670;-86
2022/11/03 11:27:30;;;;;;;;;3.33;3.33;;;;;16.44;83.26;100008.34;4994495;28;45578;-83
2022/11/03 11:29:56;;;;;;;;;4.00;3.00;;;;;16.36;84.22;99996.09;5001386;28;45324;-84
2022/11/03 11:32:43;;;;;;;;;5.00;5.00;;;;;16.49;83.85;100009.28;5000372;28;45166;-82
2022/11/03 11:35:14;;;;;;;;;4.00;3.67;;;;;16.52;83.23;100011.50;5002099;28;45492;-83
2022/11/03 11:37:41;;;;;;;;;4.00;4.00;;;;;16.48;83.01;99996.09;4990351;28;45274;-84
2022/11/03 11:40:33;;;;;;;;;3.67;3.67;;;;;16.57;84.04;100002.75;4974334;28;47345;-82
2022/11/03 11:43:05;;;;;;;;;6.33;4.00;;;;;16.56;83.27;100009.19;5002452;28;47056;-81
2022/11/03 11:46:08;;;;;;;;;6.00;4.00;;;;;16.52;83.60;99999.94;4984515;28;45329;-80
2022/11/03 11:48:34;;;;;;;;;5.00;5.00;;;;;16.39;83.70;99976.84;5005759;28;45320;-81
2022/11/03 11:51:00;;;;;;;;;4.33;3.00;;;;;16.24;83.81;99953.16;5001255;28;45483;-82